Terminal Aerodrome Forecast
Issued by NWS Shreveport, LA

Home | Current Version | Previous Version | Text Only | Print | Product List | Glossary On
Versions: 1 2 3 4 5 6 7 8 9 10 11 12
856
FTUS44 KSHV 072337
TAFMLU
TAF
KMLU 072337Z 0800/0824 24006KT P6SM FEW250
     FM080900 29010KT P6SM SKC
     FM081500 30012G20KT P6SM SKC
     FM081700 30015G25KT P6SM FEW050=

USA.gov is the U.S. government's official web portal to all federal, state and local government web resources and services.